Time;durP1;ratioP1;P1;durP2;ratioP2;P2;SDS_P1;SDS_P2;PMS_P1;PMS_P2;Temp;Humidity;BMP_temperature;BMP_pressure;BME280_temperature;BME280_humidity;BME280_pressure;Samples;Min_cycle;Max_cycle;Signal;HPM_P1;HPM_P2
2022/05/11 00:01:49;;;;;;;10.82;6.80;;;16.20;99.90;;;;;;5154057;27;20509;-74
2022/05/11 00:04:16;;;;;;;14.63;7.65;;;16.20;99.90;;;;;;5119757;27;20129;-74
2022/05/11 00:06:42;;;;;;;17.63;7.43;;;16.20;99.90;;;;;;5119944;27;20051;-74
2022/05/11 00:09:10;;;;;;;13.00;6.45;;;16.20;99.90;;;;;;5153997;27;20485;-74
2022/05/11 00:11:36;;;;;;;19.60;6.97;;;16.30;99.90;;;;;;5102635;27;20457;-74
2022/05/11 00:14:03;;;;;;;11.57;6.32;;;16.30;99.90;;;;;;5119312;27;20062;-74
2022/05/11 00:16:30;;;;;;;15.88;7.35;;;16.30;99.90;;;;;;5136669;27;20086;-74
2022/05/11 00:18:56;;;;;;;11.45;7.53;;;16.30;99.90;;;;;;5119514;27;20079;-74
2022/05/11 00:21:22;;;;;;;10.60;6.55;;;16.30;99.90;;;;;;5119156;27;20086;-73
2022/05/11 00:23:50;;;;;;;17.08;7.53;;;16.40;99.90;;;;;;5136136;27;20043;-73
2022/05/11 00:26:15;;;;;;;13.43;6.70;;;16.30;99.90;;;;;;5119329;27;20082;-75
2022/05/11 00:28:42;;;;;;;13.90;7.25;;;16.30;99.90;;;;;;5153713;27;20079;-74
2022/05/11 00:31:08;;;;;;;11.25;7.40;;;16.30;99.90;;;;;;5119183;27;20039;-74
2022/05/11 00:33:34;;;;;;;14.70;7.15;;;16.30;99.90;;;;;;5119391;27;20043;-74
2022/05/11 00:36:00;;;;;;;12.20;6.80;;;16.30;99.90;;;;;;5153735;27;20111;-74
2022/05/11 00:38:27;;;;;;;14.43;6.68;;;16.20;99.90;;;;;;5134592;27;20474;-75
2022/05/11 00:40:58;;;;;;;13.98;7.40;;;16.20;99.90;;;;;;5136107;27;20133;-75
2022/05/11 00:43:31;;;;;;;15.40;6.88;;;16.20;99.90;;;;;;5153725;27;20050;-74
2022/05/11 00:46:28;;;;;;;13.02;7.38;;;16.00;99.90;;;;;;5153653;27;20043;-74
2022/05/11 00:51:51;;;;;;;12.07;6.70;;;16.10;99.90;;;;;;5153562;27;20374;-74
2022/05/11 00:54:19;;;;;;;14.77;6.80;;;16.20;99.90;;;;;;5152844;27;20122;-73
2022/05/11 00:56:51;;;;;;;14.80;7.72;;;16.20;99.90;;;;;;5153254;27;20039;-74
2022/05/11 00:59:25;;;;;;;14.50;7.35;;;16.10;99.90;;;;;;5136102;27;20130;-73
2022/05/11 01:01:52;;;;;;;11.77;6.70;;;16.00;99.90;;;;;;5152758;27;20138;-74
2022/05/11 01:04:20;;;;;;;15.07;7.53;;;16.20;99.90;;;;;;5135864;27;20054;-74
2022/05/11 01:06:46;;;;;;;14.77;7.15;;;16.20;99.90;;;;;;5152945;27;20051;-74
2022/05/11 01:09:13;;;;;;;14.52;7.30;;;16.30;99.90;;;;;;5135878;27;20050;-73
2022/05/11 01:11:43;;;;;;;19.27;7.35;;;16.10;99.90;;;;;;5153080;27;20126;-74
2022/05/11 01:14:12;;;;;;;13.55;6.80;;;16.00;99.90;;;;;;5153030;27;20397;-74
2022/05/11 01:16:40;;;;;;;15.15;7.75;;;15.90;99.90;;;;;;5152800;27;20051;-74
2022/05/11 01:19:08;;;;;;;16.08;7.50;;;15.90;99.90;;;;;;5152860;27;20054;-74
2022/05/11 01:21:43;;;;;;;14.85;7.80;;;16.00;99.90;;;;;;5152703;27;20493;-73
2022/05/11 01:24:42;;;;;;;17.30;7.95;;;16.10;99.90;;;;;;5100819;27;20188;-74
2022/05/11 01:27:41;;;;;;;15.80;7.47;;;16.10;99.90;;;;;;5068397;27;20052;-74
2022/05/11 01:30:11;;;;;;;15.50;8.27;;;16.10;99.90;;;;;;5152973;27;20440;-74
2022/05/11 01:32:37;;;;;;;10.85;7.03;;;16.10;99.90;;;;;;5117916;27;20122;-74
2022/05/11 01:35:36;;;;;;;11.68;7.07;;;16.00;99.90;;;;;;5118033;27;20058;-74
2022/05/11 01:38:40;;;;;;;13.25;6.60;;;16.10;99.90;;;;;;5118082;27;20050;-74
2022/05/11 01:41:07;;;;;;;11.00;6.13;;;16.20;99.90;;;;;;5135008;27;20054;-74
2022/05/11 01:43:37;;;;;;;11.75;6.43;;;16.20;99.90;;;;;;5152356;27;20135;-74
2022/05/11 01:46:03;;;;;;;11.15;6.32;;;16.10;99.90;;;;;;5117753;27;20490;-74
2022/05/11 01:48:30;;;;;;;12.38;7.25;;;16.10;99.90;;;;;;5117782;27;20682;-74
2022/05/11 01:50:56;;;;;;;13.35;6.80;;;16.00;99.90;;;;;;5151760;27;20066;-74
2022/05/11 01:53:22;;;;;;;10.38;6.35;;;16.00;99.90;;;;;;5152090;27;20470;-74
2022/05/11 01:55:48;;;;;;;12.57;6.32;;;15.90;99.90;;;;;;5152285;27;20386;-74
2022/05/11 01:58:15;;;;;;;10.32;6.28;;;16.00;99.90;;;;;;5135539;27;20039;-74
2022/05/11 02:00:42;;;;;;;12.05;6.40;;;15.90;99.90;;;;;;5151983;27;20051;-74
2022/05/11 02:03:08;;;;;;;11.23;5.75;;;15.80;99.90;;;;;;5151984;27;20534;-74
2022/05/11 02:08:19;;;;;;;12.57;6.50;;;15.80;99.90;;;;;;5151750;27;20146;-75
2022/05/11 02:10:44;;;;;;;10.15;6.13;;;15.60;99.90;;;;;;5134322;27;20482;-74
2022/05/11 02:13:10;;;;;;;11.10;5.68;;;15.60;99.90;;;;;;5134549;27;20093;-74
2022/05/11 02:15:36;;;;;;;12.82;6.35;;;15.60;99.90;;;;;;5117280;27;20043;-74
2022/05/11 02:18:03;;;;;;;9.15;5.88;;;15.70;99.90;;;;;;5151963;27;20113;-74
2022/05/11 02:20:29;;;;;;;11.57;6.57;;;15.80;99.90;;;;;;5151801;27;20054;-74
2022/05/11 02:22:54;;;;;;;10.07;6.45;;;15.80;99.90;;;;;;5116663;27;20043;-74
2022/05/11 02:25:21;;;;;;;11.38;6.57;;;15.90;99.90;;;;;;5133897;27;20124;-74
2022/05/11 02:27:49;;;;;;;10.27;6.57;;;15.80;99.90;;;;;;5151443;27;20478;-74
2022/05/11 02:30:23;;;;;;;11.70;6.05;;;15.80;99.90;;;;;;5151442;27;20398;-75
2022/05/11 02:32:48;;;;;;;10.52;6.25;;;15.80;99.90;;;;;;5135184;27;20047;-74
2022/05/11 02:35:16;;;;;;;14.18;6.00;;;15.80;99.90;;;;;;5134337;27;20497;-74
2022/05/11 02:38:02;;;;;;;11.63;6.05;;;15.90;99.90;;;;;;5150869;27;20051;-75
2022/05/11 02:40:30;;;;;;;10.00;5.15;;;15.90;99.90;;;;;;5151689;27;20055;-74
2022/05/11 02:42:56;;;;;;;13.70;6.00;;;16.00;99.90;;;;;;5099965;27;20054;-74
2022/05/11 02:45:24;;;;;;;9.43;5.57;;;16.00;99.90;;;;;;5151220;27;20470;-74
2022/05/11 02:47:52;;;;;;;11.18;5.70;;;15.90;99.90;;;;;;5116619;27;20522;-74
2022/05/11 02:50:21;;;;;;;10.23;5.18;;;15.80;99.90;;;;;;5133553;27;20051;-76
2022/05/11 02:52:47;;;;;;;11.40;5.70;;;15.70;99.90;;;;;;5116825;27;20043;-74
2022/05/11 02:55:12;;;;;;;8.88;5.55;;;15.60;99.90;;;;;;5133260;27;20107;-73
2022/05/11 02:57:39;;;;;;;10.63;5.60;;;15.50;99.90;;;;;;5116558;27;20079;-74
2022/05/11 03:00:07;;;;;;;10.88;5.57;;;15.70;99.90;;;;;;5150877;27;20051;-74
2022/05/11 03:02:33;;;;;;;10.52;5.40;;;15.80;99.90;;;;;;5115095;27;20052;-74
2022/05/11 03:04:58;;;;;;;12.15;5.60;;;15.90;99.90;;;;;;5116290;28;20062;-74
2022/05/11 03:07:24;;;;;;;11.98;5.93;;;15.80;99.90;;;;;;5116518;28;20466;-74
2022/05/11 03:09:51;;;;;;;10.65;5.38;;;15.80;99.90;;;;;;5099684;28;20047;-74
2022/05/11 03:12:16;;;;;;;10.43;5.70;;;15.90;99.90;;;;;;5150897;27;20050;-74
2022/05/11 03:14:42;;;;;;;9.02;5.45;;;15.90;99.90;;;;;;5116172;28;20043;-74
2022/05/11 03:17:08;;;;;;;11.00;5.90;;;16.00;99.90;;;;;;5116109;28;20072;-74
2022/05/11 03:19:34;;;;;;;11.18;5.72;;;15.80;99.90;;;;;;5116195;28;20126;-74
2022/05/11 03:22:00;;;;;;;11.15;5.38;;;15.70;99.90;;;;;;5133265;28;20058;-74
2022/05/11 03:24:25;;;;;;;15.75;5.57;;;15.60;99.90;;;;;;5115861;28;20051;-74
2022/05/11 03:26:51;;;;;;;9.07;5.18;;;15.70;99.90;;;;;;5133449;28;20093;-74
2022/05/11 03:29:18;;;;;;;11.57;5.32;;;15.60;99.90;;;;;;5116075;28;20042;-74
2022/05/11 03:34:36;;;;;;;11.07;5.88;;;15.30;99.90;;;;;;5150604;27;20504;-74
2022/05/11 03:34:38;;;;;;;11.60;5.35;;;15.40;99.90;;;;;;5116449;28;20409;-73
2022/05/11 03:37:10;;;;;;;10.50;5.35;;;15.40;99.90;;;;;;5115927;28;20054;-74
2022/05/11 03:39:36;;;;;;;9.88;5.18;;;15.40;99.90;;;;;;5116247;28;20047;-74
2022/05/11 03:42:04;;;;;;;10.40;5.20;;;15.30;99.90;;;;;;5150569;27;20402;-74
2022/05/11 03:44:30;;;;;;;10.32;5.60;;;15.30;99.90;;;;;;5150526;27;20047;-74
2022/05/11 03:46:56;;;;;;;10.60;5.38;;;15.20;99.90;;;;;;5116566;28;20054;-74
2022/05/11 03:49:22;;;;;;;13.95;6.20;;;15.30;99.90;;;;;;5116399;28;20047;-74
2022/05/11 03:51:49;;;;;;;13.07;6.25;;;15.40;99.90;;;;;;5150469;27;20090;-74
2022/05/11 03:54:15;;;;;;;8.60;5.20;;;15.40;99.90;;;;;;5115637;28;20180;-74
2022/05/11 03:56:41;;;;;;;10.95;5.78;;;15.40;99.90;;;;;;5115819;28;20130;-73
2022/05/11 03:59:07;;;;;;;12.10;6.50;;;15.40;99.90;;;;;;5115797;28;20044;-74
2022/05/11 04:01:33;;;;;;;11.35;5.30;;;15.20;99.90;;;;;;5149827;27;20578;-74
2022/05/11 04:03:59;;;;;;;11.68;6.15;;;15.30;99.90;;;;;;5150525;27;20136;-74
2022/05/11 04:06:24;;;;;;;11.93;5.78;;;15.40;99.90;;;;;;5115867;28;20084;-74
2022/05/11 04:08:50;;;;;;;12.80;5.82;;;15.40;99.90;;;;;;5150176;27;20051;-74
2022/05/11 04:11:16;;;;;;;12.18;6.15;;;15.50;99.90;;;;;;5132755;28;20043;-75
2022/05/11 04:13:42;;;;;;;10.68;5.68;;;15.30;99.90;;;;;;5118223;27;20125;-74
2022/05/11 04:16:08;;;;;;;9.45;5.50;;;15.20;99.90;;;;;;5154280;27;20126;-74
2022/05/11 04:18:37;;;;;;;10.05;6.10;;;15.40;99.90;;;;;;5125679;27;20046;-75
2022/05/11 04:21:03;;;;;;;15.52;5.63;;;15.40;99.90;;;;;;5121608;27;20046;-74
2022/05/11 04:23:29;;;;;;;11.75;6.00;;;15.40;99.90;;;;;;5122522;27;20057;-74
2022/05/11 04:25:56;;;;;;;10.23;5.35;;;15.50;99.90;;;;;;5140180;27;20046;-73
2022/05/11 04:28:23;;;;;;;10.20;5.25;;;15.60;99.90;;;;;;5140014;27;20497;-74
2022/05/11 04:30:49;;;;;;;10.15;5.45;;;15.70;99.90;;;;;;5140256;27;20042;-74
2022/05/11 04:33:14;;;;;;;12.95;5.47;;;15.80;99.90;;;;;;5140065;27;20519;-74
2022/05/11 04:35:40;;;;;;;11.32;5.15;;;15.70;99.90;;;;;;5139663;27;20043;-74
2022/05/11 04:38:07;;;;;;;9.55;5.05;;;15.70;99.90;;;;;;5139518;27;20095;-75
2022/05/11 04:40:34;;;;;;;13.02;5.30;;;15.70;99.90;;;;;;5122770;27;20090;-74
2022/05/11 04:43:07;;;;;;;16.63;5.57;;;15.70;99.90;;;;;;5139661;27;20046;-74
2022/05/11 04:45:35;;;;;;;10.95;5.45;;;15.70;99.90;;;;;;5140218;27;20047;-74
2022/05/11 04:48:01;;;;;;;12.68;5.43;;;15.70;99.90;;;;;;5174252;27;20057;-74
2022/05/11 04:50:26;;;;;;;13.85;5.70;;;15.70;99.90;;;;;;5122795;27;20050;-74
2022/05/11 04:52:52;;;;;;;12.75;5.10;;;15.80;99.90;;;;;;5139533;27;20039;-74
2022/05/11 04:55:18;;;;;;;13.65;5.78;;;15.60;99.90;;;;;;5139255;27;20129;-74
2022/05/11 04:57:43;;;;;;;10.85;5.03;;;15.70;99.90;;;;;;5139326;27;20047;-73
2022/05/11 05:00:12;;;;;;;12.90;4.90;;;15.90;99.90;;;;;;5139477;27;20477;-74
2022/05/11 05:02:38;;;;;;;13.35;5.43;;;15.90;99.90;;;;;;5122336;27;20058;-74
2022/05/11 05:05:05;;;;;;;12.48;4.60;;;15.90;99.90;;;;;;5139200;27;20081;-75
2022/05/11 05:07:35;;;;;;;11.15;5.18;;;16.10;99.90;;;;;;5139325;27;20050;-74
2022/05/11 05:10:05;;;;;;;10.63;4.40;;;16.10;99.90;;;;;;5139088;27;20495;-75
2022/05/11 05:12:31;;;;;;;11.73;4.85;;;16.20;99.90;;;;;;5139233;27;20038;-74
2022/05/11 05:14:57;;;;;;;15.35;5.40;;;16.20;99.90;;;;;;5122261;27;20046;-74
2022/05/11 05:17:22;;;;;;;12.20;4.82;;;16.20;99.90;;;;;;5138857;27;20042;-74
2022/05/11 05:19:49;;;;;;;16.83;5.43;;;16.10;99.90;;;;;;5139159;27;20046;-74
2022/05/11 05:22:15;;;;;;;11.23;4.45;;;16.20;99.90;;;;;;5139142;27;20047;-74
2022/05/11 05:24:41;;;;;;;18.00;5.25;;;16.20;99.90;;;;;;5137773;27;20078;-74
2022/05/11 05:27:07;;;;;;;15.10;4.85;;;16.30;99.90;;;;;;5138962;27;20501;-74
2022/05/11 05:32:17;;;;;;;10.93;4.32;;;16.30;99.90;;;;;;5138798;27;20141;-74
2022/05/11 05:34:43;;;;;;;8.40;4.18;;;16.40;99.90;;;;;;5138884;27;20075;-74
2022/05/11 05:37:13;;;;;;;11.32;4.70;;;16.40;99.90;;;;;;5138232;27;20129;-75
2022/05/11 05:39:40;;;;;;;12.15;4.43;;;16.40;99.90;;;;;;5138729;27;20046;-74
2022/05/11 05:42:06;;;;;;;10.70;4.45;;;16.50;99.90;;;;;;5138426;27;20126;-74
2022/05/11 05:44:32;;;;;;;13.23;4.90;;;16.60;99.90;;;;;;5138591;27;20107;-74
2022/05/11 05:47:06;;;;;;;10.57;4.38;;;16.40;99.90;;;;;;5138618;27;20035;-75
2022/05/11 05:49:32;;;;;;;9.63;4.07;;;16.40;99.90;;;;;;5121371;27;20097;-75
2022/05/11 05:52:02;;;;;;;12.73;4.65;;;16.40;99.90;;;;;;5138503;27;20042;-74
2022/05/11 05:54:32;;;;;;;16.10;4.65;;;16.30;99.90;;;;;;5138030;27;20048;-74
2022/05/11 05:56:59;;;;;;;13.30;4.90;;;16.30;99.90;;;;;;5121259;27;20042;-74
2022/05/11 05:59:25;;;;;;;9.07;4.80;;;16.20;99.90;;;;;;5138349;27;20043;-74
2022/05/11 06:01:51;;;;;;;11.38;4.68;;;16.10;99.90;;;;;;5137937;27;20053;-74
2022/05/11 06:04:17;;;;;;;10.23;4.47;;;16.30;99.90;;;;;;5138187;27;20115;-74
2022/05/11 06:06:43;;;;;;;11.77;4.53;;;16.50;99.90;;;;;;5172964;27;20169;-74
2022/05/11 06:09:09;;;;;;;11.85;4.47;;;16.50;99.90;;;;;;5120864;27;20129;-74
2022/05/11 06:11:38;;;;;;;13.45;4.97;;;16.40;99.90;;;;;;5137668;27;20549;-74
2022/05/11 06:14:05;;;;;;;9.18;4.53;;;16.40;99.90;;;;;;5120927;27;20058;-74
2022/05/11 06:16:31;;;;;;;15.75;4.75;;;16.50;99.90;;;;;;5137820;27;20516;-74
2022/05/11 06:18:58;;;;;;;13.57;4.97;;;16.50;99.90;;;;;;5137929;27;20050;-74
2022/05/11 06:21:24;;;;;;;14.77;5.07;;;16.70;99.90;;;;;;5137786;27;20051;-74
2022/05/11 06:23:51;;;;;;;11.75;5.28;;;16.80;99.90;;;;;;5137198;27;20050;-74
2022/05/11 06:26:18;;;;;;;16.13;4.35;;;16.80;99.90;;;;;;5137370;27;20123;-74
2022/05/11 06:28:45;;;;;;;16.52;4.80;;;16.90;99.90;;;;;;5120807;27;20042;-74
2022/05/11 06:31:11;;;;;;;16.35;5.15;;;17.00;99.90;;;;;;5137683;27;20106;-74
2022/05/11 06:33:37;;;;;;;15.65;5.13;;;17.10;99.90;;;;;;5120539;27;20050;-74
2022/05/11 06:36:05;;;;;;;12.90;4.80;;;17.10;99.90;;;;;;5137359;27;20042;-74
2022/05/11 06:38:31;;;;;;;11.98;4.50;;;17.00;99.90;;;;;;5155726;27;20107;-74
2022/05/11 06:40:57;;;;;;;11.88;4.95;;;16.80;99.90;;;;;;5137755;27;20051;-74
2022/05/11 06:43:23;;;;;;;13.43;4.82;;;16.80;99.90;;;;;;5137259;27;20047;-74
2022/05/11 06:45:49;;;;;;;11.73;4.85;;;16.70;99.90;;;;;;5137246;27;20043;-74
2022/05/11 06:48:15;;;;;;;13.88;4.85;;;16.80;99.90;;;;;;5119992;27;20050;-74
2022/05/11 06:50:43;;;;;;;20.95;5.68;;;16.80;99.90;;;;;;5137498;27;20050;-73
2022/05/11 06:53:13;;;;;;;19.40;5.53;;;17.10;99.90;;;;;;5137257;27;20473;-74
2022/05/11 07:01:09;;;;;;;16.00;5.28;;;17.00;99.90;;;;;;5136848;27;20101;-74
2022/05/11 07:03:35;;;;;;;16.98;5.47;;;17.00;99.90;;;;;;5137255;27;20078;-74
2022/05/11 07:06:01;;;;;;;13.95;5.53;;;16.90;99.90;;;;;;5137040;27;20582;-73
2022/05/11 07:08:39;;;;;;;15.90;5.88;;;17.00;99.90;;;;;;5137455;27;20437;-74
2022/05/11 07:13:49;;;;;;;18.65;5.85;;;17.00;99.90;;;;;;5137441;27;20500;-74
2022/05/11 07:16:16;;;;;;;13.70;5.20;;;17.10;99.90;;;;;;5102729;27;20043;-74
2022/05/11 07:18:42;;;;;;;13.48;4.90;;;17.00;99.90;;;;;;5136723;27;20051;-74
2022/05/11 07:21:08;;;;;;;17.58;5.93;;;17.10;99.90;;;;;;5136786;27;20092;-72
2022/05/11 07:23:34;;;;;;;17.33;6.40;;;17.20;99.90;;;;;;5136224;27;20375;-75
2022/05/11 07:26:00;;;;;;;14.45;5.78;;;17.20;99.90;;;;;;5120636;27;20138;-74
2022/05/11 07:28:26;;;;;;;18.15;5.93;;;17.00;99.90;;;;;;5119780;27;20137;-75
2022/05/11 07:30:51;;;;;;;19.33;7.07;;;17.10;99.90;;;;;;5114555;27;20157;-81
2022/05/11 07:33:17;;;;;;;17.42;6.40;;;17.10;99.90;;;;;;5114150;27;20069;-75
2022/05/11 07:35:44;;;;;;;21.17;6.22;;;17.20;99.90;;;;;;5152429;27;20046;-75
2022/05/11 07:38:13;;;;;;;17.10;5.50;;;17.10;99.90;;;;;;5101030;28;20055;-76
2022/05/11 07:40:40;;;;;;;19.48;6.18;;;17.20;99.90;;;;;;5134060;28;20043;-75
2022/05/11 07:43:07;;;;;;;16.23;6.00;;;17.20;99.90;;;;;;5150635;27;20039;-75
2022/05/11 07:45:33;;;;;;;19.33;5.85;;;17.30;99.90;;;;;;5134212;28;20057;-75
2022/05/11 07:47:58;;;;;;;13.75;5.20;;;17.40;99.90;;;;;;5135812;27;20110;-75
2022/05/11 07:50:24;;;;;;;15.27;5.53;;;17.00;99.90;;;;;;5119834;27;20088;-75
2022/05/11 07:52:50;;;;;;;18.23;5.90;;;17.20;99.90;;;;;;5138090;27;20055;-75
2022/05/11 07:55:17;;;;;;;14.95;4.90;;;17.50;99.90;;;;;;5119416;27;20470;-74
2022/05/11 08:00:27;;;;;;;14.10;5.85;;;17.70;99.90;;;;;;5119879;27;20062;-74
2022/05/11 08:02:53;;;;;;;18.23;5.25;;;17.70;99.90;;;;;;5119747;27;20051;-74
2022/05/11 08:05:20;;;;;;;17.50;4.90;;;17.80;99.90;;;;;;5120021;27;20047;-75
2022/05/11 08:07:49;;;;;;;16.70;5.30;;;17.70;99.90;;;;;;5119969;27;20055;-74
2022/05/11 08:10:40;;;;;;;13.95;5.53;;;18.00;99.90;;;;;;5119863;27;20054;-74
2022/05/11 08:13:07;;;;;;;16.33;5.28;;;18.00;99.90;;;;;;5154563;27;20047;-73
2022/05/11 08:15:36;;;;;;;18.80;5.10;;;18.10;99.90;;;;;;5136824;27;20043;-76
2022/05/11 08:18:04;;;;;;;22.08;4.88;;;18.20;99.90;;;;;;5125685;27;20078;-76
2022/05/11 08:20:33;;;;;;;13.90;3.92;;;18.50;99.90;;;;;;5160138;27;20057;-76
2022/05/11 08:23:00;;;;;;;20.15;4.40;;;18.40;99.90;;;;;;5154275;27;20108;-76
2022/05/11 08:25:28;;;;;;;15.75;3.53;;;18.60;99.90;;;;;;5137351;27;20055;-75
2022/05/11 08:27:55;;;;;;;18.27;3.47;;;18.40;99.90;;;;;;5154112;27;20077;-76
2022/05/11 08:33:23;;;;;;;15.98;3.42;;;18.10;99.90;;;;;;5119682;27;20086;-77
2022/05/11 08:35:51;;;;;;;14.70;2.85;;;18.00;99.90;;;;;;5153719;27;20039;-77
2022/05/11 08:38:19;;;;;;;14.63;3.40;;;18.20;99.90;;;;;;5153503;27;20447;-76
2022/05/11 08:41:11;;;;;;;15.02;3.17;;;18.30;99.90;;;;;;5118987;27;20410;-77
2022/05/11 08:43:38;;;;;;;13.02;2.95;;;18.40;99.90;;;;;;5136973;27;20554;-77
2022/05/11 08:46:13;;;;;;;14.85;3.13;;;18.20;99.90;;;;;;5153671;27;20121;-76
2022/05/11 08:49:21;;;;;;;16.83;3.10;;;18.20;99.90;;;;;;5102123;27;20047;-77
2022/05/11 08:51:53;;;;;;;12.18;3.60;;;18.60;99.90;;;;;;5100237;27;20089;-76
2022/05/11 08:54:41;;;;;;;14.35;3.28;;;18.30;99.90;;;;;;5147662;27;20038;-75
2022/05/11 08:57:14;;;;;;;11.38;2.67;;;18.40;99.90;;;;;;5151458;27;20125;-75
2022/05/11 08:59:40;;;;;;;14.55;2.72;;;18.50;99.90;;;;;;5155749;27;20493;-74
2022/05/11 09:02:23;;;;;;;18.50;3.08;;;18.70;99.90;;;;;;5138752;27;20058;-74
2022/05/11 09:04:59;;;;;;;16.83;2.92;;;18.60;99.90;;;;;;5122535;27;20057;-74
2022/05/11 09:07:27;;;;;;;;;;;18.70;99.90;;;;;;5139590;27;20055;-74
2022/05/11 09:09:53;;;;;;;13.52;2.80;;;18.70;99.90;;;;;;5157224;27;19919;-74
2022/05/11 09:12:20;;;;;;;15.10;3.22;;;19.10;99.90;;;;;;5139333;27;20051;-81
2022/05/11 09:14:52;;;;;;;18.40;2.88;;;19.00;99.90;;;;;;5138941;27;20401;-79
2022/05/11 09:17:34;;;;;;;14.40;3.42;;;19.00;99.90;;;;;;5139295;27;20119;-79
2022/05/11 09:20:13;;;;;;;16.60;3.45;;;18.70;99.90;;;;;;5138887;27;20126;-79
2022/05/11 09:22:59;;;;;;;11.73;2.70;;;18.40;99.90;;;;;;5138980;27;20058;-78
2022/05/11 09:25:28;;;;;;;17.42;3.65;;;18.20;99.90;;;;;;5138803;27;20054;-78
2022/05/11 09:28:15;;;;;;;19.63;3.65;;;18.30;99.90;;;;;;5121267;27;20438;-81
2022/05/11 09:31:03;;;;;;;15.52;2.75;;;18.20;99.90;;;;;;5141149;27;20045;-82
2022/05/11 09:33:32;;;;;;;18.23;3.42;;;18.50;99.90;;;;;;5138913;27;20039;-85
2022/05/11 09:36:02;;;;;;;17.48;3.10;;;18.70;99.90;;;;;;5138719;27;20393;-86
2022/05/11 09:38:33;;;;;;;13.23;2.83;;;18.90;99.90;;;;;;5138433;27;20042;-79
2022/05/11 09:41:04;;;;;;;12.75;2.80;;;18.90;99.90;;;;;;5138798;27;20039;-81
2022/05/11 09:43:36;;;;;;;14.43;3.05;;;18.70;99.90;;;;;;5138327;27;20054;-80
2022/05/11 09:46:22;;;;;;;17.13;2.65;;;18.80;99.90;;;;;;5138668;27;20480;-88
2022/05/11 09:49:20;;;;;;;14.40;3.10;;;18.80;99.90;;;;;;5138660;27;20054;-78
2022/05/11 09:51:46;;;;;;;14.68;2.65;;;18.50;99.90;;;;;;5093504;27;20054;-82
2022/05/11 09:54:30;;;;;;;17.38;2.58;;;18.50;99.90;;;;;;5138114;27;20051;-82
2022/05/11 09:57:23;;;;;;;13.93;2.58;;;18.90;99.90;;;;;;5138605;27;20035;-83
2022/05/11 09:59:51;;;;;;;13.90;2.65;;;19.20;99.90;;;;;;5121099;27;20039;-85
2022/05/11 10:02:36;;;;;;;18.05;2.78;;;19.50;99.90;;;;;;5138080;27;20057;-89
2022/05/11 10:05:12;;;;;;;11.98;2.13;;;19.70;99.90;;;;;;5139224;27;20049;-92
2022/05/11 10:08:02;;;;;;;18.38;2.65;;;19.60;99.90;;;;;;5138759;27;20050;-91
2022/05/11 10:10:40;;;;;;;12.75;2.42;;;19.70;99.90;;;;;;5137599;27;20086;-83
2022/05/11 10:13:31;;;;;;;15.95;3.15;;;19.80;99.90;;;;;;5138309;27;20485;-89
2022/05/11 10:21:56;;;;;;;7.95;2.05;;;19.60;99.40;;;;;;5138284;27;20048;-87
2022/05/11 10:24:46;;;;;;;16.75;2.25;;;19.50;99.50;;;;;;5137465;27;20091;-85
2022/05/11 10:27:20;;;;;;;15.35;2.30;;;19.20;99.50;;;;;;5137432;27;20504;-82
2022/05/11 10:30:03;;;;;;;14.35;2.83;;;19.20;99.50;;;;;;5137765;27;20058;-82
2022/05/11 10:32:55;;;;;;;11.00;2.40;;;19.20;99.80;;;;;;5137790;27;20441;-78
2022/05/11 10:35:55;;;;;;;13.60;2.45;;;19.00;99.30;;;;;;5137866;27;20054;-88
2022/05/11 10:38:26;;;;;;;;;;;18.40;99.70;;;;;;5150790;27;20058;-92
2022/05/11 10:41:07;;;;;;;12.70;2.40;;;18.50;99.40;;;;;;5137851;27;19919;-80
2022/05/11 10:43:40;;;;;;;10.75;2.60;;;18.60;99.40;;;;;;5137390;27;20074;-82
2022/05/11 10:46:12;;;;;;;12.90;2.58;;;18.70;99.60;;;;;;5120462;27;20062;-79
2022/05/11 10:49:01;;;;;;;16.15;2.60;;;19.20;99.80;;;;;;5137725;27;20437;-82
2022/05/11 10:51:30;;;;;;;15.25;2.90;;;19.60;99.40;;;;;;5137627;27;20178;-79
2022/05/11 10:53:55;;;;;;;13.95;2.55;;;20.00;99.50;;;;;;5136881;27;20055;-82
2022/05/11 10:56:39;;;;;;;16.50;3.17;;;20.50;99.70;;;;;;5137336;27;20113;-79
2022/05/11 10:59:28;;;;;;;19.05;3.35;;;20.60;99.10;;;;;;5120320;27;20487;-80
2022/05/11 11:01:57;;;;;;;13.75;3.25;;;20.20;99.80;;;;;;5136850;27;20058;-80
2022/05/11 11:05:00;;;;;;;11.05;2.70;;;20.20;99.80;;;;;;5136767;27;20512;-80
2022/05/11 11:07:53;;;;;;;14.02;3.00;;;20.30;99.90;;;;;;5137371;27;20065;-85
2022/05/11 11:10:26;;;;;;;19.85;3.05;;;20.20;99.50;;;;;;5136817;27;20069;-78
2022/05/11 11:13:13;;;;;;;13.50;2.70;;;20.00;98.70;;;;;;5155881;27;20046;-92
2022/05/11 11:15:44;;;;;;;22.65;3.85;;;19.90;98.90;;;;;;5137937;27;20045;-79
2022/05/11 11:18:14;;;;;;;15.60;3.40;;;19.40;99.00;;;;;;5119410;27;20042;-80
2022/05/11 11:20:43;;;;;;;16.08;2.97;;;19.20;99.10;;;;;;5137201;27;20058;-87
2022/05/11 11:23:09;;;;;;;15.25;2.55;;;19.40;99.80;;;;;;5119488;27;20031;-89
2022/05/11 11:26:16;;;;;;;12.05;2.50;;;19.70;99.50;;;;;;5119573;27;20549;-93
2022/05/11 11:28:41;;;;;;;14.70;2.45;;;20.10;99.00;;;;;;5091815;27;20061;-85
2022/05/11 11:31:12;;;;;;;15.57;2.22;;;19.80;98.70;;;;;;5136571;27;20043;-78
2022/05/11 11:33:39;;;;;;;11.00;2.38;;;19.90;98.40;;;;;;5132783;27;20051;-78
2022/05/11 11:36:28;;;;;;;16.88;2.30;;;20.50;99.50;;;;;;5135267;27;20077;-78
2022/05/11 11:38:58;;;;;;;12.57;1.90;;;21.20;99.10;;;;;;5136884;27;20046;-83
2022/05/11 11:41:51;;;;;;;14.25;2.00;;;21.70;98.10;;;;;;5159764;27;20512;-81
2022/05/11 11:44:20;;;;;;;12.73;1.83;;;21.50;98.00;;;;;;5097339;27;20058;-74
2022/05/11 11:46:46;;;;;;;15.50;2.47;;;21.50;98.10;;;;;;5136548;27;20050;-78
2022/05/11 11:49:18;;;;;;;8.18;1.58;;;21.20;98.10;;;;;;5136642;27;20042;-79
2022/05/11 11:51:58;;;;;;;10.27;2.35;;;21.30;98.10;;;;;;5119844;27;20055;-79
2022/05/11 11:54:34;;;;;;;10.02;1.90;;;21.20;97.80;;;;;;5136278;27;20469;-74
2022/05/11 11:57:00;;;;;;;;;;;20.70;97.90;;;;;;5155441;27;20086;-76
2022/05/11 11:59:28;;;;;;;9.73;2.20;;;20.50;98.10;;;;;;5137400;27;19927;-77
2022/05/11 12:01:58;;;;;;;6.25;1.67;;;20.10;98.40;;;;;;5133015;28;20058;-75
2022/05/11 12:04:37;;;;;;;14.43;1.75;;;20.30;98.00;;;;;;5133136;28;20047;-74
2022/05/11 12:15:31;;;;;;;12.02;1.48;;;20.40;97.10;;;;;;5132304;28;20059;-76
2022/05/11 12:17:57;;;;;;;7.28;1.77;;;20.50;97.40;;;;;;5132534;28;20043;-76
2022/05/11 12:20:23;;;;;;;8.32;1.45;;;21.60;98.50;;;;;;5115789;28;20047;-76
2022/05/11 12:22:58;;;;;;;18.63;2.00;;;22.60;97.60;;;;;;5133182;28;20082;-76
2022/05/11 12:25:28;;;;;;;15.07;1.70;;;22.50;97.50;;;;;;5132702;28;20496;-76
2022/05/11 12:27:54;;;;;;;9.35;1.23;;;22.60;97.30;;;;;;5132838;28;20054;-75
2022/05/11 12:30:25;;;;;;;7.85;1.40;;;23.00;97.00;;;;;;5115826;28;20054;-76
2022/05/11 12:33:04;;;;;;;7.25;1.42;;;22.90;96.50;;;;;;5115924;28;20051;-76
2022/05/11 12:35:36;;;;;;;5.80;1.40;;;22.70;96.70;;;;;;5136975;27;20095;-76
2022/05/11 12:38:13;;;;;;;9.20;1.05;;;22.80;96.30;;;;;;5137639;27;20047;-76
2022/05/11 12:40:43;;;;;;;8.32;1.77;;;22.80;97.00;;;;;;5136172;27;20569;-76
2022/05/11 12:43:32;;;;;;;6.00;1.40;;;22.60;96.50;;;;;;5136327;27;20099;-77
2022/05/11 12:46:09;;;;;;;9.40;1.83;;;22.70;96.40;;;;;;5137681;27;20131;-76
2022/05/11 12:48:39;;;;;;;8.73;1.20;;;22.50;95.70;;;;;;5136446;27;20043;-76
2022/05/11 12:51:14;;;;;;;10.60;1.17;;;22.30;96.00;;;;;;5135972;27;20535;-76
2022/05/11 12:53:59;;;;;;;7.77;1.10;;;22.00;95.70;;;;;;5136879;27;20571;-76
2022/05/11 12:56:33;;;;;;;6.05;1.20;;;21.40;96.00;;;;;;5136447;27;20047;-76
2022/05/11 12:59:36;;;;;;;17.55;2.22;;;21.70;96.20;;;;;;5135988;27;20504;-76
2022/05/11 13:02:23;;;;;;;8.93;1.45;;;22.10;96.30;;;;;;5056583;28;20048;-76
2022/05/11 13:04:52;;;;;;;16.02;1.58;;;22.70;96.50;;;;;;5131188;27;20050;-76
2022/05/11 13:07:49;;;;;;;10.70;1.92;;;22.90;96.00;;;;;;5135989;27;20133;-76
2022/05/11 13:10:22;;;;;;;9.82;1.83;;;22.50;95.90;;;;;;5122276;27;20054;-76
2022/05/11 13:12:56;;;;;;;13.35;2.10;;;22.40;96.10;;;;;;5137043;27;20135;-76
2022/05/11 13:15:33;;;;;;;19.60;2.50;;;21.90;95.90;;;;;;5135926;27;20047;-76
2022/05/11 13:17:59;;;;;;;12.05;2.10;;;21.90;96.10;;;;;;5135608;27;20054;-76
2022/05/11 13:20:27;;;;;;;10.02;1.75;;;22.20;96.50;;;;;;5135606;27;20389;-76
2022/05/11 13:23:00;;;;;;;15.82;1.80;;;22.60;97.50;;;;;;5136776;27;20047;-76
2022/05/11 13:25:48;;;;;;;13.68;1.48;;;23.40;96.70;;;;;;5135389;27;20130;-77
2022/05/11 13:28:27;;;;;;;10.38;1.85;;;23.50;96.10;;;;;;5135620;27;20055;-76
2022/05/11 13:30:59;;;;;;;11.85;1.60;;;23.10;96.30;;;;;;5135506;27;20075;-77
2022/05/11 13:33:30;;;;;;;10.30;1.77;;;23.00;95.90;;;;;;5135284;27;20043;-76
2022/05/11 13:36:15;;;;;;;13.00;2.17;;;22.70;95.70;;;;;;5135824;27;20039;-83